EmailTwitter


Surface observations / Quebec / EGOM

Regions: Quebec | Canada | USA | Europe | France | UK | Elsewhere
Station
Display
Info & Location for EGOM | Help decoding METAR

Weather Conditions observed on 2017/09/26 at 15:50 UTC (EGOM)

Sky conditions: variable clouds.

Temperature: 15.0 Celsius.

Dewpoint: 11.0 Celsius.

Relative Humidity: 77%

Winds: East-southeast at 17 km/h or 9 knots.

Mean Sea level Pressure: 102.20 kilopascals.

Horizontal visibility: 6.21 statute miles or 9.94 kilometers.

Coded METAR:

EGOM 261550Z AUTO 11009KT 9999 SCT032/// 15/11 Q1022=